createdAt,value
2022-09-13T00:29:25.614Z,0
2022-09-13T00:30:05.904Z,0
2022-09-13T00:30:46.534Z,0
2022-09-13T00:31:27.044Z,0
2022-09-13T00:32:07.548Z,0
2022-09-13T00:32:47.998Z,0
2022-09-13T00:33:28.408Z,0
2022-09-13T00:34:08.906Z,0
2022-09-13T00:34:49.346Z,0
2022-09-13T00:35:29.853Z,0
2022-09-13T00:36:10.458Z,0
2022-09-13T00:42:55.615Z,0
2022-09-13T00:46:09.510Z,0
2022-09-13T00:46:50.117Z,0
2022-09-13T00:47:30.633Z,0
2022-09-13T00:48:11.200Z,0
2022-09-13T00:48:51.651Z,0
2022-09-13T00:49:32.122Z,0
2022-09-13T00:50:12.650Z,0
2022-09-13T00:50:53.144Z,0
2022-09-13T00:51:33.658Z,0
2022-09-13T00:52:14.134Z,0
2022-09-13T00:58:59.108Z,0
2022-09-13T00:59:39.600Z,0
2022-09-13T01:00:20.110Z,0
2022-09-13T01:01:00.668Z,0
2022-09-13T01:01:41.137Z,0
2022-09-13T01:02:21.739Z,0
2022-09-13T01:03:02.132Z,0
2022-09-13T01:03:42.705Z,0
2022-09-13T01:04:23.159Z,0
2022-09-13T01:05:03.673Z,0
2022-09-13T01:05:44.258Z,0
2022-09-13T01:12:29.318Z,0
2022-09-13T01:13:09.811Z,0
2022-09-13T01:13:50.490Z,0
2022-09-13T01:14:30.955Z,0
2022-09-13T01:15:11.517Z,0
2022-09-13T01:15:51.976Z,0
2022-09-13T01:16:32.441Z,0
2022-09-13T01:17:13.010Z,0
2022-09-13T01:17:53.398Z,0
2022-09-13T01:18:33.922Z,0
2022-09-13T01:25:19.272Z,0
2022-09-13T01:25:59.812Z,0
2022-09-13T01:26:40.368Z,0
2022-09-13T01:27:20.827Z,0
2022-09-13T01:28:01.326Z,0
2022-09-13T01:28:41.840Z,0
2022-09-13T01:29:22.345Z,0
2022-09-13T01:30:02.797Z,0
2022-09-13T01:30:43.354Z,0
2022-09-13T01:31:23.974Z,0
2022-09-13T01:32:04.396Z,0
2022-09-13T01:38:49.448Z,0
2022-09-13T01:39:29.978Z,0
2022-09-13T01:40:10.519Z,0
2022-09-13T01:40:51.029Z,0
2022-09-13T01:41:31.507Z,0
2022-09-13T01:42:12.087Z,0
2022-09-13T01:42:52.659Z,0
2022-09-13T01:43:33.254Z,0
2022-09-13T01:44:13.841Z,0
2022-09-13T01:50:59.459Z,0
2022-09-13T01:51:39.951Z,0
2022-09-13T01:52:20.383Z,0
2022-09-13T01:53:01.112Z,0
2022-09-13T01:53:41.598Z,0
2022-09-13T01:54:22.081Z,0
2022-09-13T01:55:02.577Z,0
2022-09-13T01:55:43.040Z,0
2022-09-13T01:56:23.569Z,0
2022-09-13T01:57:04.044Z,0
2022-09-13T02:03:49.276Z,0
2022-09-13T02:04:29.653Z,0
2022-09-13T02:05:10.134Z,0
2022-09-13T02:05:50.654Z,0
2022-09-13T02:06:31.130Z,0
2022-09-13T02:07:11.627Z,0
2022-09-13T02:07:52.069Z,0
2022-09-13T02:08:32.527Z,0
2022-09-13T02:09:13.179Z,0
2022-09-13T02:09:53.687Z,0
2022-09-13T02:10:34.203Z,0
2022-09-13T02:17:19.222Z,0
2022-09-13T02:17:59.676Z,0
2022-09-13T02:18:40.211Z,0
2022-09-13T02:19:20.705Z,0
2022-09-13T02:20:01.183Z,0
2022-09-13T02:20:41.682Z,0
2022-09-13T02:21:22.187Z,0
2022-09-13T02:22:02.729Z,0
2022-09-13T02:22:43.227Z,0
2022-09-13T02:23:23.700Z,0
2022-09-13T02:26:37.673Z,0
2022-09-13T02:27:18.276Z,0
2022-09-13T02:27:58.756Z,0
2022-09-13T02:28:39.227Z,0
2022-09-13T02:29:19.688Z,0
2022-09-13T02:30:00.166Z,0
2022-09-13T02:30:40.663Z,0
2022-09-13T02:31:21.187Z,0
2022-09-13T02:32:01.749Z,0
2022-09-13T02:32:42.170Z,0
2022-09-13T02:33:22.689Z,0
2022-09-13T02:40:07.752Z,0
2022-09-13T02:40:48.140Z,0
2022-09-13T02:41:28.687Z,0
2022-09-13T02:42:12.261Z,0
2022-09-13T02:42:49.607Z,0
2022-09-13T02:43:30.153Z,0
2022-09-13T02:44:10.701Z,0
2022-09-13T02:44:51.155Z,0
2022-09-13T02:45:31.705Z,0
2022-09-13T02:46:12.147Z,0
2022-09-13T02:46:52.617Z,0
2022-09-13T02:53:37.726Z,0
2022-09-13T02:54:18.236Z,0
2022-09-13T02:54:58.762Z,0
2022-09-13T02:55:39.210Z,0
2022-09-13T02:56:19.737Z,0
2022-09-13T02:57:01.028Z,0
2022-09-13T02:57:41.501Z,0
2022-09-13T02:58:26.382Z,0
2022-09-13T02:59:02.504Z,0
2022-09-13T03:04:29.381Z,0
2022-09-13T03:05:10.554Z,0
2022-09-13T03:05:51.298Z,0
2022-09-13T03:06:31.993Z,0
2022-09-13T03:07:12.320Z,0
2022-09-13T03:11:57.812Z,0
2022-09-13T03:15:12.161Z,0
2022-09-13T03:15:52.632Z,0
2022-09-13T03:16:33.175Z,0
2022-09-13T03:17:13.647Z,0
2022-09-13T03:17:54.145Z,0
2022-09-13T03:18:35.627Z,0
2022-09-13T03:19:16.125Z,0
2022-09-13T03:19:56.636Z,0
2022-09-13T03:20:37.058Z,0
2022-09-13T03:27:22.137Z,0
2022-09-13T03:28:02.601Z,0
2022-09-13T03:28:43.100Z,0
2022-09-13T03:29:23.566Z,0
2022-09-13T03:30:04.080Z,0
2022-09-13T03:30:44.599Z,0
2022-09-13T03:31:25.118Z,0
2022-09-13T03:32:05.662Z,0
2022-09-13T03:32:46.127Z,0
2022-09-13T03:33:26.709Z,0
2022-09-13T03:34:07.140Z,0
2022-09-13T03:40:11.977Z,0
2022-09-13T03:40:52.325Z,0
2022-09-13T03:41:32.813Z,0
2022-09-13T03:42:13.328Z,0
2022-09-13T03:43:34.250Z,0
2022-09-13T03:44:14.794Z,0
2022-09-13T03:44:55.262Z,0
2022-09-13T03:45:35.812Z,0
2022-09-13T03:46:16.236Z,0
2022-09-13T03:46:56.796Z,0
2022-09-13T03:53:41.922Z,0
2022-09-13T03:54:22.362Z,0
2022-09-13T03:55:02.852Z,0
2022-09-13T03:55:43.355Z,0
2022-09-13T03:56:23.819Z,0
2022-09-13T03:57:04.360Z,0
2022-09-13T03:57:44.902Z,0
2022-09-13T03:58:25.403Z,0
2022-09-13T03:59:05.860Z,0
2022-09-13T03:59:46.361Z,0
2022-09-13T04:00:26.840Z,0
2022-09-13T04:07:12.005Z,0
2022-09-13T04:07:52.608Z,0
2022-09-13T04:08:32.965Z,0
2022-09-13T04:09:13.539Z,0
2022-09-13T04:09:54.046Z,0
2022-09-13T04:10:34.596Z,0
2022-09-13T04:11:15.181Z,0
2022-09-13T04:11:56.591Z,0
2022-09-13T04:17:22.295Z,0
2022-09-13T04:18:02.861Z,0
2022-09-13T04:18:43.352Z,0
2022-09-13T04:19:23.862Z,0
2022-09-13T04:20:04.453Z,0
2022-09-13T04:21:25.402Z,0
2022-09-13T04:22:05.929Z,0
2022-09-13T04:22:46.431Z,0
2022-09-13T04:29:48.169Z,0
2022-09-13T04:30:28.820Z,0
2022-09-13T04:31:09.394Z,0
2022-09-13T04:31:50.021Z,0
2022-09-13T04:32:30.325Z,0
2022-09-13T04:33:10.814Z,0
2022-09-13T04:33:51.284Z,0
2022-09-13T04:34:31.783Z,0
2022-09-13T04:35:12.932Z,0
2022-09-13T04:41:35.698Z,0
2022-09-13T04:42:15.573Z,0
2022-09-13T04:42:56.099Z,0
2022-09-13T04:43:36.532Z,0
2022-09-13T04:44:17.008Z,0
2022-09-13T04:44:57.497Z,0
2022-09-13T04:45:38.095Z,0
2022-09-13T04:46:18.545Z,0
2022-09-13T04:46:58.994Z,0
2022-09-13T04:53:44.028Z,0
2022-09-13T04:54:24.463Z,4
2022-09-13T04:55:04.901Z,4
2022-09-13T04:55:45.429Z,4
2022-09-13T04:56:25.879Z,4
2022-09-13T04:57:06.430Z,4
2022-09-13T04:57:46.891Z,4
2022-09-13T04:59:07.901Z,0
2022-09-13T04:59:48.421Z,4
2022-09-13T05:00:28.965Z,4
2022-09-13T05:07:14.016Z,8
2022-09-13T05:07:54.502Z,8
2022-09-13T05:08:35.005Z,8
2022-09-13T05:09:15.544Z,12
2022-09-13T05:09:56.078Z,8
2022-09-13T05:10:36.619Z,12
2022-09-13T05:11:17.094Z,8
2022-09-13T05:11:57.590Z,12
2022-09-13T05:12:38.078Z,12
2022-09-13T05:13:18.635Z,16
2022-09-13T05:13:59.119Z,16
2022-09-13T05:20:44.288Z,28
2022-09-13T05:21:24.782Z,32
2022-09-13T05:22:05.271Z,32
2022-09-13T05:22:45.756Z,32
2022-09-13T05:23:26.248Z,32
2022-09-13T05:24:06.825Z,32
2022-09-13T05:24:47.322Z,36
2022-09-13T05:25:27.834Z,36
2022-09-13T05:26:48.913Z,32
2022-09-13T05:33:34.007Z,40
2022-09-13T05:34:14.487Z,44
2022-09-13T05:34:55.234Z,44
2022-09-13T05:35:35.740Z,52
2022-09-13T05:36:16.349Z,48
2022-09-13T05:36:56.921Z,52
2022-09-13T05:37:37.370Z,52
2022-09-13T05:38:17.879Z,52
2022-09-13T05:40:00.617Z,56
2022-09-13T05:45:44.040Z,36
2022-09-13T05:46:24.510Z,40
2022-09-13T05:47:05.027Z,36
2022-09-13T05:47:45.670Z,40
2022-09-13T05:48:26.153Z,40
2022-09-13T05:49:06.760Z,40
2022-09-13T05:50:08.556Z,44
2022-09-13T05:50:56.622Z,48
2022-09-13T05:51:08.214Z,52
2022-09-13T05:51:48.795Z,60
2022-09-13T05:52:29.217Z,64
2022-09-13T06:32:08.242Z,276
2022-09-13T06:32:48.836Z,268
2022-09-13T06:33:29.793Z,268
2022-09-13T06:34:10.553Z,264
2022-09-13T06:34:52.253Z,264
2022-09-13T06:35:32.912Z,268
2022-09-13T06:38:57.680Z,296
2022-09-13T06:39:40.721Z,308
2022-09-13T06:40:25.072Z,324
2022-09-13T06:43:00.064Z,404
2022-09-13T06:43:40.905Z,440
2022-09-13T06:44:21.289Z,476
2022-09-13T06:45:01.914Z,516
2022-09-13T06:45:42.392Z,552
2022-09-13T06:46:25.033Z,592
2022-09-13T06:47:03.594Z,636
2022-09-13T06:47:44.329Z,680
2022-09-13T06:48:25.650Z,712
2022-09-13T06:53:10.236Z,768
2022-09-13T06:53:50.801Z,768
2022-09-13T06:54:31.968Z,760
2022-09-13T06:55:12.946Z,740
2022-09-13T06:55:53.323Z,724
2022-09-13T06:56:34.020Z,712
2022-09-13T06:57:14.698Z,712
2022-09-13T07:02:41.222Z,688
2022-09-13T07:03:21.735Z,684
2022-09-13T07:04:02.230Z,688
2022-09-13T07:04:42.822Z,700
2022-09-13T07:05:23.406Z,724
2022-09-13T07:06:04.340Z,748
2022-09-13T07:11:30.130Z,776
2022-09-13T07:13:58.531Z,936
2022-09-13T07:14:40.164Z,976
2022-09-13T07:15:20.666Z,1000
2022-09-13T07:16:01.300Z,1012
2022-09-13T07:16:41.772Z,1020
2022-09-13T07:17:22.325Z,1028
2022-09-13T07:18:02.869Z,1040
2022-09-13T07:22:08.638Z,1108
2022-09-13T07:22:49.222Z,1072
2022-09-13T07:23:29.826Z,1084
2022-09-13T07:24:10.408Z,1192
2022-09-13T07:24:50.896Z,1128
2022-09-13T07:25:32.081Z,1244
2022-09-13T07:26:12.565Z,1176
2022-09-13T07:26:53.114Z,1364
2022-09-13T07:32:58.226Z,1532
2022-09-13T07:33:38.848Z,1576
2022-09-13T07:34:19.908Z,1624
2022-09-13T07:35:00.395Z,1672
2022-09-13T07:35:41.646Z,1720
2022-09-13T07:36:22.889Z,1768
2022-09-13T07:37:03.551Z,1808
2022-09-13T07:42:28.596Z,1944
2022-09-13T07:43:09.026Z,1992
2022-09-13T07:43:49.618Z,2012
2022-09-13T07:44:30.959Z,2000
2022-09-13T07:48:00.055Z,2024
2022-09-13T07:48:41.269Z,2020
2022-09-13T07:49:21.592Z,2000
2022-09-13T07:50:02.082Z,1992
2022-09-13T07:50:42.679Z,1964
2022-09-13T07:51:23.226Z,1912
2022-09-13T07:52:03.926Z,1880
2022-09-13T07:52:45.566Z,1844
2022-09-13T07:54:49.921Z,1804
2022-09-13T07:55:31.470Z,1808
2022-09-13T07:56:12.041Z,1792
2022-09-13T07:56:52.662Z,1808
2022-09-13T07:57:34.035Z,1828
2022-09-13T07:58:14.601Z,1824
2022-09-13T08:03:41.127Z,2000
2022-09-13T08:04:21.543Z,2032
2022-09-13T08:05:02.185Z,2056
2022-09-13T08:05:42.801Z,2080
2022-09-13T08:06:23.305Z,2108
2022-09-13T08:07:03.874Z,2132
2022-09-13T08:07:44.409Z,2148
2022-09-13T08:13:11.502Z,1908
2022-09-13T08:13:52.894Z,1868
2022-09-13T08:14:33.602Z,1848
2022-09-13T08:15:14.197Z,1848
2022-09-13T08:15:54.822Z,1840
2022-09-13T08:21:36.065Z,1976
2022-09-13T08:22:16.661Z,2000
2022-09-13T08:22:57.822Z,2008
2022-09-13T08:23:38.366Z,2008
2022-09-13T08:24:18.816Z,2088
2022-09-13T08:24:59.412Z,2144
2022-09-13T08:25:39.956Z,2124
2022-09-13T08:26:21.821Z,2232
2022-09-13T08:31:46.237Z,2416
2022-09-13T08:32:26.969Z,2324
2022-09-13T08:33:07.521Z,2416
2022-09-13T08:33:48.333Z,2468
2022-09-13T08:34:28.586Z,2516
2022-09-13T08:35:09.283Z,2548
2022-09-13T08:35:49.864Z,2560
2022-09-13T08:36:30.392Z,2556
2022-09-13T08:37:11.220Z,2560
2022-09-13T08:41:15.951Z,2532
2022-09-13T08:41:56.674Z,2600
2022-09-13T08:42:37.227Z,2636
2022-09-13T08:43:17.822Z,2624
2022-09-13T08:43:58.991Z,2636
2022-09-13T08:44:39.747Z,2632
2022-09-13T08:45:20.443Z,2612
2022-09-13T08:46:01.341Z,2596
2022-09-13T08:50:46.249Z,2440
2022-09-13T08:56:20.507Z,2276
2022-09-13T08:57:02.044Z,2256
2022-09-13T08:57:42.608Z,2220
2022-09-13T08:58:23.196Z,2192
2022-09-13T08:59:03.752Z,2168
2022-09-13T09:02:18.741Z,2200
2022-09-13T09:02:59.131Z,2192
2022-09-13T09:04:56.165Z,2200
2022-09-13T09:08:19.143Z,2124
2022-09-13T09:08:59.767Z,2172
2022-09-13T09:09:40.546Z,2136
2022-09-13T09:10:21.076Z,2124
2022-09-13T09:11:01.599Z,2124
2022-09-13T09:11:42.157Z,2108
2022-09-13T09:12:22.690Z,2076
2022-09-13T09:13:03.702Z,2072
2022-09-13T09:16:30.875Z,1984
2022-09-13T09:17:11.488Z,1980
2022-09-13T09:17:52.117Z,1988
2022-09-13T09:18:32.588Z,1968
2022-09-13T09:19:13.279Z,1964
2022-09-13T09:24:38.261Z,1996
2022-09-13T09:25:18.843Z,1976
2022-09-13T09:25:59.398Z,1976
2022-09-13T09:26:40.935Z,1960
2022-09-13T09:27:20.581Z,1956
2022-09-13T09:28:01.527Z,1956
2022-09-13T09:28:42.160Z,1968
2022-09-13T09:29:25.210Z,1972
2022-09-13T09:35:30.102Z,2012
2022-09-13T09:39:10.818Z,2092
2022-09-13T09:39:51.418Z,2100
2022-09-13T09:43:06.173Z,2128
2022-09-13T09:43:46.241Z,2128
2022-09-13T09:44:26.991Z,2128
2022-09-13T09:46:56.468Z,2080
2022-09-13T09:47:36.834Z,2104
2022-09-13T09:48:17.420Z,2124
2022-09-13T09:48:57.994Z,2100
2022-09-13T09:49:38.548Z,2060
2022-09-13T09:50:19.072Z,2040
2022-09-13T09:50:59.607Z,2028
2022-09-13T09:51:40.227Z,2028
2022-09-13T09:52:20.670Z,2020
2022-09-13T09:58:25.823Z,1980
2022-09-13T09:59:06.309Z,1936
2022-09-13T09:59:46.795Z,1836
2022-09-13T10:00:27.829Z,1912
2022-09-13T10:01:11.229Z,1968
2022-09-13T10:01:48.952Z,1952
2022-09-13T10:02:29.473Z,1924
2022-09-13T10:03:09.998Z,1956
2022-09-13T10:03:50.565Z,1936
2022-09-13T10:04:31.099Z,1880
2022-09-13T10:10:35.832Z,1500
2022-09-13T10:11:16.301Z,1492
2022-09-13T10:11:56.910Z,1488
2022-09-13T10:12:37.423Z,1448
2022-09-13T10:13:17.981Z,1624
2022-09-13T10:13:58.708Z,1680
2022-09-13T10:14:39.187Z,1640
2022-09-13T10:15:19.732Z,1668
2022-09-13T10:16:00.930Z,1668
2022-09-13T10:22:46.227Z,1524
2022-09-13T10:23:26.773Z,1484
2022-09-13T10:24:07.305Z,1404
2022-09-13T10:24:47.936Z,1396
2022-09-13T10:25:28.473Z,1376
2022-09-13T10:26:08.961Z,1388
2022-09-13T10:26:49.501Z,1356
2022-09-13T10:27:30.040Z,1360
2022-09-13T10:28:10.654Z,1328
2022-09-13T10:28:51.206Z,1332
2022-09-13T10:34:56.120Z,1468
2022-09-13T10:35:36.578Z,1508
2022-09-13T10:36:25.063Z,1544
2022-09-13T10:36:57.639Z,1564
2022-09-13T10:37:38.174Z,1592
2022-09-13T10:38:18.676Z,1628
2022-09-13T10:38:59.179Z,1636
2022-09-13T10:39:39.917Z,1660
2022-09-13T10:40:20.213Z,1660
2022-09-13T10:41:00.713Z,1692
2022-09-13T10:47:45.957Z,1920
2022-09-13T10:48:26.454Z,1920
2022-09-13T10:49:07.048Z,1964
2022-09-13T10:49:47.572Z,1992
2022-09-13T10:50:28.057Z,2016
2022-09-13T10:51:08.647Z,2004
2022-09-13T10:51:49.233Z,2032
2022-09-13T10:52:29.688Z,2024
2022-09-13T10:53:10.234Z,2052
2022-09-13T10:53:50.695Z,2040
2022-09-13T11:00:36.072Z,2044
2022-09-13T11:01:16.582Z,2032
2022-09-13T11:01:57.049Z,2052
2022-09-13T11:02:37.515Z,2044
2022-09-13T11:03:18.061Z,2036
2022-09-13T11:03:58.735Z,2008
2022-09-13T11:04:39.166Z,2020
2022-09-13T11:05:19.677Z,2052
2022-09-13T11:11:26.773Z,2036
2022-09-13T11:12:07.396Z,2148
2022-09-13T11:12:48.475Z,2108
2022-09-13T11:13:29.329Z,2400
2022-09-13T11:14:09.860Z,2056
2022-09-13T11:14:50.372Z,2120
2022-09-13T11:15:30.985Z,2096
2022-09-13T11:20:55.864Z,2228
2022-09-13T11:21:36.443Z,2448
2022-09-13T11:22:17.124Z,2460
2022-09-13T11:22:59.402Z,2516
2022-09-13T11:23:40.094Z,2648
2022-09-13T11:25:07.481Z,2572
2022-09-13T11:25:47.991Z,2624
2022-09-13T11:26:28.479Z,2480
2022-09-13T11:27:09.139Z,2364
2022-09-13T11:27:49.923Z,2480
2022-09-13T11:28:30.572Z,2380
2022-09-13T11:29:11.188Z,2244
2022-09-13T11:33:17.217Z,2396
2022-09-13T11:33:56.740Z,2404
2022-09-13T11:34:37.362Z,2320
2022-09-13T11:35:18.431Z,2212
2022-09-13T11:35:59.215Z,2084
2022-09-13T11:36:40.022Z,2104
2022-09-13T11:37:20.423Z,2064
2022-09-13T11:38:00.917Z,2312
2022-09-13T11:41:26.034Z,2084
2022-09-13T11:42:06.545Z,2268
2022-09-13T11:42:47.308Z,2272
2022-09-13T11:43:27.924Z,2252
2022-09-13T11:44:08.636Z,1976
2022-09-13T11:45:29.657Z,1688
2022-09-13T11:46:10.276Z,1792
2022-09-13T11:46:50.924Z,1864
2022-09-13T11:49:36.413Z,1620
2022-09-13T11:50:17.793Z,1684
2022-09-13T11:50:58.814Z,1644
2022-09-13T11:51:43.122Z,1596
2022-09-13T11:54:26.804Z,1420
2022-09-13T12:32:48.527Z,1068
2022-09-13T12:33:29.533Z,1100
2022-09-13T12:34:10.100Z,1128
2022-09-13T12:34:50.533Z,1132
2022-09-13T12:35:31.056Z,1152
2022-09-13T12:36:11.662Z,1156
2022-09-13T12:36:52.073Z,1076
2022-09-13T12:42:18.334Z,1432
2022-09-13T12:42:58.466Z,1436
2022-09-13T12:43:39.193Z,1408
2022-09-13T12:44:19.576Z,1392
2022-09-13T12:45:00.766Z,1324
2022-09-13T12:45:41.264Z,1288
2022-09-13T12:46:21.716Z,1176
2022-09-13T12:47:02.391Z,1252
2022-09-13T12:47:42.963Z,1352
2022-09-13T12:51:48.463Z,1184
2022-09-13T12:52:29.591Z,1184
2022-09-13T12:53:12.296Z,1208
2022-09-13T12:53:53.671Z,1228
2022-09-13T12:56:33.558Z,1300
2022-09-13T12:57:14.572Z,1304
2022-09-13T12:57:55.609Z,1348
2022-09-13T12:58:36.721Z,1392
2022-09-13T12:59:18.085Z,1436
2022-09-13T13:02:43.565Z,1464
2022-09-13T13:03:24.765Z,1440
2022-09-13T13:04:05.708Z,1460
2022-09-13T13:04:46.839Z,1380
2022-09-13T13:05:27.881Z,1388
2022-09-13T13:08:53.195Z,1504
2022-09-13T13:09:34.254Z,1464
2022-09-13T13:10:15.280Z,1372
2022-09-13T13:10:56.310Z,1328
2022-09-13T13:11:37.324Z,1332
2022-09-13T13:14:09.323Z,1360
2022-09-13T13:14:49.391Z,1344
2022-09-13T13:15:30.863Z,1356
2022-09-13T13:16:12.055Z,1344
2022-09-13T13:20:57.940Z,1216
2022-09-13T13:21:38.941Z,1200
2022-09-13T13:22:19.864Z,1192
2022-09-13T13:23:00.702Z,1192
2022-09-13T13:27:48.508Z,1404
2022-09-13T13:28:27.393Z,1464
2022-09-13T13:29:09.011Z,1516
2022-09-13T13:29:49.468Z,1472
2022-09-13T13:31:16.971Z,1528
2022-09-13T13:31:57.792Z,1580
2022-09-13T13:32:38.755Z,1568
2022-09-13T13:33:19.406Z,1552
2022-09-13T13:33:59.978Z,1524
2022-09-13T13:34:40.725Z,1544
2022-09-13T13:35:21.722Z,1600
2022-09-13T13:38:07.810Z,1712
2022-09-13T13:38:48.345Z,1776
2022-09-13T13:42:02.795Z,1812
2022-09-13T13:42:43.264Z,1828
2022-09-13T13:43:24.679Z,1780
2022-09-13T13:44:05.449Z,1668
2022-09-13T13:44:45.991Z,1588
2022-09-13T13:45:26.754Z,1560
2022-09-13T13:46:07.145Z,1580
2022-09-13T13:48:08.704Z,1668
2022-09-13T13:48:49.250Z,1684
2022-09-13T13:49:30.184Z,1796
2022-09-13T13:50:10.709Z,1852
2022-09-13T13:50:51.158Z,1832
2022-09-13T13:51:31.837Z,1804
2022-09-13T13:52:13.261Z,1788
2022-09-13T13:52:53.896Z,1724
2022-09-13T13:57:39.617Z,1264
2022-09-13T13:58:20.216Z,1236
2022-09-13T13:59:01.592Z,1296
2022-09-13T13:59:42.253Z,1260
2022-09-13T14:00:22.947Z,1380
2022-09-13T14:01:03.697Z,1408
2022-09-13T14:01:44.164Z,1260
2022-09-13T14:05:49.840Z,1048
2022-09-13T14:06:30.343Z,1048
2022-09-13T14:07:19.386Z,1064
2022-09-13T14:07:52.205Z,1084
2022-09-13T14:09:13.399Z,1120
2022-09-13T14:09:53.971Z,1136
2022-09-13T14:15:19.377Z,1284
2022-09-13T14:15:59.884Z,1312
2022-09-13T14:16:40.523Z,1324
2022-09-13T14:17:21.173Z,1336
2022-09-13T14:18:01.596Z,1328
2022-09-13T14:18:43.148Z,1316
2022-09-13T14:19:23.666Z,1332
2022-09-13T14:20:04.160Z,1308
2022-09-13T14:26:09.228Z,1296
2022-09-13T14:26:49.965Z,1276
2022-09-13T14:27:30.713Z,1212
2022-09-13T14:28:11.191Z,1188
2022-09-13T14:28:51.728Z,1148
2022-09-13T14:29:32.305Z,1128
2022-09-13T14:30:12.958Z,1132
2022-09-13T14:30:53.536Z,1196
2022-09-13T14:31:34.153Z,1224
2022-09-13T14:37:39.266Z,1360
2022-09-13T14:40:33.903Z,1316
2022-09-13T14:41:14.926Z,1300
2022-09-13T14:41:56.053Z,1132
2022-09-13T14:42:39.292Z,1160
2022-09-13T14:44:01.306Z,1048
2022-09-13T14:44:42.227Z,1032
2022-09-13T14:45:23.193Z,1004
2022-09-13T14:46:04.367Z,980
2022-09-13T14:46:45.478Z,952
2022-09-13T14:47:26.471Z,928
2022-09-13T14:48:51.325Z,900
2022-09-13T14:49:32.656Z,880
2022-09-13T14:50:13.625Z,860
2022-09-13T14:50:54.523Z,844
2022-09-13T14:51:35.618Z,828
2022-09-13T14:52:16.682Z,816
2022-09-13T14:55:41.638Z,768
2022-09-13T14:56:23.929Z,776
2022-09-13T14:57:04.992Z,784
2022-09-13T14:57:46.001Z,788
2022-09-13T15:00:40.319Z,816
2022-09-13T15:01:21.175Z,816
2022-09-13T15:02:03.086Z,816
2022-09-13T15:02:42.252Z,816
2022-09-13T15:03:22.934Z,808
2022-09-13T15:04:03.436Z,796
2022-09-13T15:04:44.021Z,784
2022-09-13T15:05:24.754Z,768
2022-09-13T15:09:00.238Z,676
2022-09-13T15:09:40.781Z,664
2022-09-13T15:10:21.287Z,656
2022-09-13T15:11:02.742Z,648
2022-09-13T15:14:16.564Z,612
2022-09-13T15:14:57.062Z,604
2022-09-13T15:15:37.939Z,600
2022-09-13T15:16:18.573Z,596
2022-09-13T15:16:59.143Z,596
2022-09-13T15:17:39.723Z,592
2022-09-13T15:18:20.288Z,584
2022-09-13T15:19:00.725Z,572
2022-09-13T15:19:41.302Z,548
2022-09-13T15:26:26.408Z,488
2022-09-13T15:27:06.971Z,480
2022-09-13T15:27:47.713Z,476
2022-09-13T15:28:28.396Z,472
2022-09-13T15:31:57.869Z,436
2022-09-13T15:32:38.955Z,416
2022-09-13T15:33:19.547Z,404
2022-09-13T15:34:00.286Z,400
2022-09-13T15:37:15.207Z,368
2022-09-13T15:37:57.151Z,360
2022-09-13T15:38:38.375Z,352
2022-09-13T15:39:19.511Z,356
2022-09-13T15:42:05.651Z,364
2022-09-13T15:42:47.040Z,368
2022-09-13T15:43:28.525Z,368
2022-09-13T15:44:09.989Z,368
2022-09-13T15:47:35.897Z,360
2022-09-13T15:48:16.380Z,352
2022-09-13T15:48:57.426Z,348
2022-09-13T15:49:38.562Z,340
2022-09-13T15:50:19.672Z,336
2022-09-13T15:53:45.060Z,300
2022-09-13T15:54:26.363Z,300
2022-09-13T15:55:07.781Z,296
2022-09-13T15:55:48.855Z,292
2022-09-13T15:56:30.038Z,288
2022-09-13T15:59:14.699Z,272
2022-09-13T15:59:55.929Z,272
2022-09-13T16:00:37.022Z,272
2022-09-13T16:01:18.203Z,264
2022-09-13T16:01:59.237Z,264
2022-09-13T16:05:25.038Z,256
2022-09-13T16:06:06.141Z,252
2022-09-13T16:06:47.168Z,252
2022-09-13T16:07:28.249Z,252
2022-09-13T16:08:09.379Z,248
2022-09-13T16:12:15.362Z,216
2022-09-13T16:16:11.357Z,188
2022-09-13T16:16:51.819Z,184
2022-09-13T16:17:32.367Z,180
2022-09-13T16:18:12.818Z,176
2022-09-13T16:18:53.326Z,172
2022-09-13T16:22:13.095Z,152
2022-09-13T16:22:52.709Z,144
2022-09-13T16:23:33.211Z,140
2022-09-13T16:24:13.745Z,136
2022-09-13T16:24:54.280Z,132
2022-09-13T16:26:15.346Z,124
2022-09-13T16:26:55.925Z,120
2022-09-13T16:27:36.503Z,116
2022-09-13T16:31:02.091Z,104
2022-09-13T16:31:42.575Z,100
2022-09-13T16:32:23.472Z,100
2022-09-13T16:33:44.394Z,96
2022-09-13T16:34:24.908Z,96
2022-09-13T16:35:05.387Z,92
2022-09-13T16:35:45.887Z,92
2022-09-13T16:36:26.422Z,88
2022-09-13T16:37:06.948Z,88
2022-09-13T16:42:31.887Z,96
2022-09-13T16:43:12.373Z,96
2022-09-13T16:43:53.199Z,96
2022-09-13T16:44:34.562Z,92
2022-09-13T16:45:15.104Z,92
2022-09-13T16:45:55.729Z,88
2022-09-13T16:46:36.426Z,84
2022-09-13T16:47:16.771Z,80
2022-09-13T16:53:22.402Z,68
2022-09-13T16:54:03.099Z,64
2022-09-13T16:54:43.711Z,64
2022-09-13T16:55:24.270Z,64
2022-09-13T16:56:06.787Z,64
2022-09-13T16:56:45.491Z,64
2022-09-13T16:57:25.830Z,64
2022-09-13T16:58:06.431Z,64
2022-09-13T16:58:46.828Z,64
2022-09-13T17:04:12.725Z,60
2022-09-13T17:04:53.268Z,60
2022-09-13T17:05:33.900Z,60
2022-09-13T17:06:14.413Z,60
2022-09-13T17:06:55.074Z,60
2022-09-13T17:07:35.598Z,60
2022-09-13T17:08:16.114Z,56
2022-09-13T17:08:56.622Z,56
2022-09-13T17:09:37.097Z,56
2022-09-13T17:14:21.980Z,48
2022-09-13T17:15:02.781Z,48
2022-09-13T17:15:43.287Z,48
2022-09-13T17:16:23.779Z,44
2022-09-13T17:17:05.108Z,44
2022-09-13T17:17:45.520Z,44
2022-09-13T17:18:26.078Z,44
2022-09-13T17:19:06.537Z,44
2022-09-13T17:19:47.057Z,44
2022-09-13T17:26:32.274Z,32
2022-09-13T17:27:12.768Z,32
2022-09-13T17:27:53.285Z,32
2022-09-13T17:28:33.745Z,32
2022-09-13T17:29:14.275Z,28
2022-09-13T17:29:55.646Z,28
2022-09-13T17:32:55.090Z,20
2022-09-13T17:33:35.630Z,20
2022-09-13T17:34:16.134Z,20
2022-09-13T17:34:56.625Z,20
2022-09-13T17:35:37.128Z,20
2022-09-13T17:36:17.681Z,16
2022-09-13T17:36:58.143Z,16
2022-09-13T17:37:38.736Z,16
2022-09-13T17:38:59.660Z,12
2022-09-13T17:45:44.778Z,8
2022-09-13T17:46:25.258Z,4
2022-09-13T17:47:05.737Z,4
2022-09-13T17:47:46.236Z,8
2022-09-13T17:48:26.793Z,4
2022-09-13T17:49:07.238Z,4
2022-09-13T17:49:47.777Z,4
2022-09-13T17:50:28.255Z,4
2022-09-13T17:51:08.755Z,4
2022-09-13T17:51:49.260Z,4
2022-09-13T17:52:34.195Z,4
2022-09-13T18:34:45.386Z,0
2022-09-13T18:35:25.913Z,0
2022-09-13T18:36:06.370Z,0
2022-09-13T18:36:46.886Z,0
2022-09-13T18:37:27.331Z,0
2022-09-13T18:38:07.889Z,0
2022-09-13T18:38:48.342Z,0
2022-09-13T18:39:28.858Z,0
2022-09-13T18:40:09.442Z,0
2022-09-13T18:40:49.835Z,0
2022-09-13T18:47:35.038Z,0
2022-09-13T18:48:15.518Z,0
2022-09-13T18:48:56.079Z,0
2022-09-13T18:49:36.613Z,0
2022-09-13T18:50:19.936Z,0
2022-09-13T18:50:57.593Z,0
2022-09-13T18:51:38.108Z,0
2022-09-13T18:52:18.561Z,0
2022-09-13T18:52:59.016Z,0
2022-09-13T18:53:39.579Z,0
2022-09-13T19:01:10.118Z,0
2022-09-13T19:04:09.845Z,0
2022-09-13T19:04:51.206Z,0
2022-09-13T19:05:32.237Z,0
2022-09-13T19:06:13.189Z,0
2022-09-13T19:10:19.572Z,0
2022-09-13T19:11:03.751Z,0
2022-09-13T19:14:29.070Z,0
2022-09-13T19:15:10.088Z,0
2022-09-13T19:15:51.132Z,0
2022-09-13T19:16:32.019Z,0
2022-09-13T19:17:12.991Z,0
2022-09-13T19:17:54.039Z,0
2022-09-13T19:21:18.941Z,0
2022-09-13T19:21:59.950Z,0
2022-09-13T19:22:40.898Z,0
2022-09-13T19:23:21.983Z,0
2022-09-13T19:24:06.656Z,0
2022-09-13T19:24:44.045Z,0
2022-09-13T19:28:09.049Z,0
2022-09-13T19:28:50.105Z,0
2022-09-13T19:29:31.003Z,0
2022-09-13T19:30:11.958Z,0
2022-09-13T19:30:53.319Z,0
2022-09-13T19:31:34.642Z,0
2022-09-13T19:34:59.446Z,0
2022-09-13T19:35:40.419Z,0
2022-09-13T19:36:21.427Z,0
2022-09-13T19:37:02.395Z,0
2022-09-13T19:37:43.422Z,0
2022-09-13T19:44:29.966Z,0
2022-09-13T19:45:10.446Z,0
2022-09-13T19:45:54.977Z,0
2022-09-13T19:46:31.849Z,0
2022-09-13T19:48:34.500Z,0
2022-09-13T19:48:38.476Z,0
2022-09-13T19:49:13.395Z,0
2022-09-13T19:49:53.948Z,0
2022-09-13T19:50:34.358Z,0
2022-09-13T19:57:19.542Z,0
2022-09-13T19:58:00.039Z,0
2022-09-13T19:58:40.498Z,0
2022-09-13T19:59:21.008Z,0
2022-09-13T20:00:01.502Z,0
2022-09-13T20:00:42.039Z,0
2022-09-13T20:01:22.621Z,0
2022-09-13T20:02:03.043Z,0
2022-09-13T20:02:43.513Z,0
2022-09-13T20:03:23.977Z,0